createdAt,value
2019-01-24T00:00:42.992Z,9.83
2019-01-24T00:03:12.088Z,6.50
2019-01-24T00:05:40.979Z,4.03
2019-01-24T00:08:09.866Z,5.07
2019-01-24T00:10:38.652Z,5.67
2019-01-24T00:13:07.458Z,4.33
2019-01-24T00:15:36.332Z,5.20
2019-01-24T00:18:05.163Z,4.73
2019-01-24T00:20:34.010Z,5.53
2019-01-24T00:23:02.901Z,5.03
2019-01-24T00:25:31.629Z,3.87
2019-01-24T00:28:00.501Z,4.03
2019-01-24T00:30:29.474Z,6.67
2019-01-24T00:32:58.208Z,3.60
2019-01-24T00:35:27.047Z,5.63
2019-01-24T00:37:55.817Z,3.57
2019-01-24T00:40:24.543Z,3.90
2019-01-24T00:42:53.304Z,5.83
2019-01-24T00:45:22.401Z,5.50
2019-01-24T00:47:51.193Z,7.77
2019-01-24T00:50:19.918Z,5.03
2019-01-24T00:52:48.704Z,4.63
2019-01-24T00:55:17.451Z,3.90
2019-01-24T00:57:46.240Z,3.33
2019-01-24T01:00:20.432Z,4.90
2019-01-24T01:02:49.760Z,5.27
2019-01-24T01:05:18.747Z,4.07
2019-01-24T01:07:48.141Z,3.80
2019-01-24T01:10:17.365Z,5.03
2019-01-24T01:12:46.749Z,3.17
2019-01-24T01:15:18.506Z,3.07
2019-01-24T01:17:47.733Z,4.10
2019-01-24T01:20:21.921Z,3.07
2019-01-24T01:22:51.117Z,3.83
2019-01-24T01:25:20.007Z,4.00
2019-01-24T01:27:49.003Z,3.87
2019-01-24T01:30:20.393Z,4.03
2019-01-24T01:32:49.544Z,4.33
2019-01-24T01:35:18.776Z,2.80
2019-01-24T01:37:48.146Z,2.87
2019-01-24T01:40:20.620Z,3.27
2019-01-24T01:42:49.410Z,3.50
2019-01-24T01:45:20.449Z,4.37
2019-01-24T01:47:49.481Z,3.23
2019-01-24T01:50:20.519Z,4.30
2019-01-24T01:52:49.784Z,6.97
2019-01-24T01:55:18.513Z,4.33
2019-01-24T01:57:47.358Z,6.33
2019-01-24T02:00:18.715Z,4.63
2019-01-24T02:02:47.531Z,8.47
2019-01-24T02:05:16.532Z,4.93
2019-01-24T02:07:45.305Z,5.17
2019-01-24T02:10:22.049Z,9.47
2019-01-24T02:12:51.211Z,10.07
2019-01-24T02:15:20.343Z,6.73
2019-01-24T02:17:49.649Z,7.23
2019-01-24T02:20:20.510Z,6.50
2019-01-24T02:22:49.237Z,8.80
2019-01-24T02:25:18.259Z,8.40
2019-01-24T02:27:47.356Z,5.50
2019-01-24T02:30:24.642Z,6.03
2019-01-24T02:32:53.974Z,5.67
2019-01-24T02:35:22.834Z,8.73
2019-01-24T02:37:51.562Z,6.40
2019-01-24T02:40:20.921Z,5.90
2019-01-24T02:42:49.712Z,6.67
2019-01-24T02:45:23.924Z,7.17
2019-01-24T02:47:54.017Z,5.47
2019-01-24T02:50:23.960Z,4.97
2019-01-24T02:52:52.799Z,7.67
2019-01-24T02:55:21.637Z,7.53
2019-01-24T02:57:50.421Z,6.33
2019-01-24T03:00:21.354Z,5.23
2019-01-24T03:02:50.254Z,7.97
2019-01-24T03:05:21.294Z,5.03
2019-01-24T03:07:50.427Z,4.10
2019-01-24T03:10:19.379Z,8.67
2019-01-24T03:12:48.574Z,6.80
2019-01-24T03:15:21.871Z,5.23
2019-01-24T03:17:51.303Z,7.63
2019-01-24T03:20:20.171Z,8.83
2019-01-24T03:22:49.352Z,7.67
2019-01-24T03:25:19.381Z,6.93
2019-01-24T03:27:48.577Z,10.23
2019-01-24T03:30:20.341Z,8.17
2019-01-24T03:32:49.433Z,8.53
2019-01-24T03:35:21.085Z,5.80
2019-01-24T03:37:49.878Z,8.23
2019-01-24T03:40:18.763Z,6.17
2019-01-24T03:42:47.551Z,8.17
2019-01-24T03:45:18.459Z,8.43
2019-01-24T03:47:47.382Z,6.50
2019-01-24T03:50:18.012Z,7.00
2019-01-24T03:52:46.799Z,8.53
2019-01-24T03:55:17.737Z,8.60
2019-01-24T03:57:46.655Z,6.30
2019-01-24T04:00:26.073Z,10.70
2019-01-24T04:02:54.794Z,7.47
2019-01-24T04:05:24.116Z,4.53
2019-01-24T04:07:52.955Z,8.87
2019-01-24T04:10:22.672Z,6.60
2019-01-24T04:12:51.437Z,5.77
2019-01-24T04:15:23.009Z,6.60
2019-01-24T04:17:52.296Z,6.93
2019-01-24T04:20:21.119Z,7.60
2019-01-24T04:22:49.969Z,8.70
2019-01-24T04:25:18.720Z,4.60
2019-01-24T04:27:47.435Z,7.67
2019-01-24T04:30:18.783Z,7.00
2019-01-24T04:32:47.584Z,10.27
2019-01-24T04:35:20.091Z,9.63
2019-01-24T04:37:47.511Z,7.53
2019-01-24T04:40:18.139Z,7.80
2019-01-24T04:42:46.929Z,7.03
2019-01-24T04:45:17.114Z,6.60
2019-01-24T04:47:45.938Z,5.93
2019-01-24T04:50:16.471Z,7.60
2019-01-24T04:52:45.253Z,8.33
2019-01-24T04:55:16.208Z,5.10
2019-01-24T04:57:45.055Z,8.00
2019-01-24T05:00:22.693Z,6.50
2019-01-24T05:02:51.467Z,8.03
2019-01-24T05:05:27.172Z,5.93
2019-01-24T05:07:50.992Z,5.43
2019-01-24T05:10:19.779Z,5.20
2019-01-24T05:12:48.668Z,6.93
2019-01-24T05:15:18.683Z,4.30
2019-01-24T05:17:47.470Z,4.77
2019-01-24T05:20:16.263Z,7.20
2019-01-24T05:22:45.148Z,6.77
2019-01-24T05:25:16.102Z,4.73
2019-01-24T05:27:44.812Z,7.60
2019-01-24T05:30:17.350Z,5.17
2019-01-24T05:32:46.077Z,6.70
2019-01-24T05:35:14.926Z,6.63
2019-01-24T05:37:43.816Z,8.37
2019-01-24T05:40:12.940Z,9.33
2019-01-24T05:42:41.718Z,7.90
2019-01-24T05:45:13.075Z,8.10
2019-01-24T05:47:41.833Z,8.67
2019-01-24T05:50:12.980Z,7.33
2019-01-24T05:52:42.299Z,8.03
2019-01-24T05:55:12.530Z,7.47
2019-01-24T05:57:41.493Z,6.83
2019-01-24T06:00:17.651Z,8.43
2019-01-24T06:02:46.442Z,7.13
2019-01-24T06:05:15.970Z,12.97
2019-01-24T06:07:44.858Z,8.10
2019-01-24T06:10:15.780Z,10.03
2019-01-24T06:12:44.667Z,12.27
2019-01-24T06:15:16.128Z,9.77
2019-01-24T06:17:45.211Z,9.20
2019-01-24T06:20:14.343Z,11.23
2019-01-24T06:22:43.199Z,11.03
2019-01-24T06:25:13.865Z,8.13
2019-01-24T06:27:43.135Z,9.63
2019-01-24T06:30:20.321Z,11.30
2019-01-24T06:32:49.207Z,11.63
2019-01-24T06:35:17.939Z,13.73
2019-01-24T06:37:46.929Z,17.07
2019-01-24T06:40:16.695Z,15.47
2019-01-24T06:42:45.590Z,11.10
2019-01-24T06:45:17.246Z,11.10
2019-01-24T06:47:46.231Z,10.57
2019-01-24T06:50:16.562Z,11.63
2019-01-24T06:52:45.553Z,9.73
2019-01-24T06:55:17.310Z,13.83
2019-01-24T06:57:46.094Z,10.80
2019-01-24T07:00:17.262Z,12.47
2019-01-24T07:02:46.027Z,14.50
2019-01-24T07:05:15.123Z,11.50
2019-01-24T07:07:44.338Z,14.83
2019-01-24T07:10:15.669Z,17.57
2019-01-24T07:12:44.461Z,13.77
2019-01-24T07:15:16.520Z,14.27
2019-01-24T07:17:45.410Z,12.20
2019-01-24T07:20:16.760Z,15.97
2019-01-24T07:22:45.755Z,9.03
2019-01-24T07:25:20.124Z,11.33
2019-01-24T07:27:48.958Z,10.73
2019-01-24T07:30:19.633Z,12.87
2019-01-24T07:32:48.789Z,10.27
2019-01-24T07:35:18.926Z,11.80
2019-01-24T07:37:48.106Z,11.67
2019-01-24T07:40:20.628Z,10.10
2019-01-24T07:42:50.905Z,10.77
2019-01-24T07:45:25.529Z,11.47
2019-01-24T07:47:54.263Z,13.37
2019-01-24T07:50:23.102Z,13.03
2019-01-24T07:52:51.890Z,9.27
2019-01-24T07:55:20.626Z,9.67
2019-01-24T07:57:49.365Z,14.43
2019-01-24T08:00:26.762Z,12.70
2019-01-24T08:02:55.797Z,15.50
2019-01-24T08:05:26.031Z,13.47
2019-01-24T08:07:54.860Z,12.97
2019-01-24T08:10:24.470Z,16.27
2019-01-24T08:12:53.218Z,15.00
2019-01-24T08:15:23.455Z,16.53
2019-01-24T08:17:52.574Z,16.60
2019-01-24T08:20:26.292Z,13.07
2019-01-24T08:22:55.178Z,18.93
2019-01-24T08:25:24.259Z,12.63
2019-01-24T08:27:53.296Z,11.40
2019-01-24T08:30:27.366Z,13.17
2019-01-24T08:32:56.254Z,12.67
2019-01-24T08:35:25.149Z,12.27
2019-01-24T08:37:54.140Z,13.03
2019-01-24T08:40:24.077Z,14.30
2019-01-24T08:42:53.293Z,19.43
2019-01-24T08:45:22.141Z,20.73
2019-01-24T08:47:51.158Z,19.13
2019-01-24T08:50:27.192Z,17.07
2019-01-24T08:52:56.287Z,13.70
2019-01-24T08:55:36.241Z,19.77
2019-01-24T08:58:05.855Z,14.67
2019-01-24T09:00:34.633Z,18.00
2019-01-24T09:03:03.633Z,17.77
2019-01-24T09:05:32.364Z,19.53
2019-01-24T09:08:01.406Z,18.73
2019-01-24T09:10:32.963Z,15.30
2019-01-24T09:13:02.201Z,18.43
2019-01-24T09:15:31.251Z,19.47
2019-01-24T09:18:00.162Z,18.73
2019-01-24T09:20:29.042Z,20.57
2019-01-24T09:22:57.781Z,14.97
2019-01-24T09:25:26.608Z,16.83
2019-01-24T09:27:55.401Z,24.67
2019-01-24T09:30:27.156Z,17.93
2019-01-24T09:32:56.159Z,16.07
2019-01-24T09:35:25.140Z,15.10
2019-01-24T09:37:53.928Z,18.13
2019-01-24T09:40:23.825Z,13.40
2019-01-24T09:42:52.736Z,13.77
2019-01-24T09:45:29.033Z,15.93
2019-01-24T09:47:59.076Z,21.63
2019-01-24T09:50:28.816Z,12.93
2019-01-24T09:52:58.127Z,19.00
2019-01-24T09:55:27.026Z,19.73
2019-01-24T09:57:55.805Z,17.73
2019-01-24T10:00:30.192Z,19.17
2019-01-24T10:02:59.019Z,16.07
2019-01-24T10:05:27.798Z,12.17
2019-01-24T10:07:57.098Z,13.57
2019-01-24T10:10:27.543Z,16.63
2019-01-24T10:12:57.090Z,15.07
2019-01-24T10:15:26.128Z,11.87
2019-01-24T10:17:54.916Z,15.30
2019-01-24T10:20:25.766Z,9.33
2019-01-24T10:22:54.653Z,11.80
2019-01-24T10:25:28.688Z,13.63
2019-01-24T10:27:57.644Z,15.23
2019-01-24T10:30:27.337Z,15.70
2019-01-24T10:32:56.248Z,13.93
2019-01-24T10:35:24.988Z,15.03
2019-01-24T10:37:54.149Z,14.87
2019-01-24T10:40:24.991Z,12.90
2019-01-24T10:42:53.723Z,13.60
2019-01-24T10:45:23.175Z,15.33
2019-01-24T10:47:53.272Z,16.07
2019-01-24T10:50:26.669Z,15.70
2019-01-24T10:52:55.665Z,10.83
2019-01-24T10:55:26.607Z,14.57
2019-01-24T10:58:01.204Z,14.10
2019-01-24T11:00:32.690Z,7.70
2019-01-24T11:03:03.735Z,15.47
2019-01-24T11:05:32.838Z,13.43
2019-01-24T11:08:01.602Z,14.70
2019-01-24T11:10:30.391Z,13.13
2019-01-24T11:12:59.302Z,12.63
2019-01-24T11:15:28.376Z,12.70
2019-01-24T11:17:57.166Z,10.43
2019-01-24T11:20:26.167Z,13.47
2019-01-24T11:22:55.151Z,13.27
2019-01-24T11:25:25.788Z,9.97
2019-01-24T11:27:54.878Z,15.70
2019-01-24T11:30:26.122Z,11.80
2019-01-24T11:32:55.865Z,13.30
2019-01-24T11:35:27.755Z,12.83
2019-01-24T11:37:56.901Z,12.13
2019-01-24T11:40:25.744Z,13.03
2019-01-24T11:42:54.982Z,13.17
2019-01-24T11:45:26.737Z,13.80
2019-01-24T11:47:55.523Z,16.77
2019-01-24T11:50:24.415Z,13.80
2019-01-24T11:52:53.209Z,12.90
2019-01-24T11:55:22.506Z,14.87
2019-01-24T11:57:51.499Z,15.13
2019-01-24T12:00:33.312Z,20.63
2019-01-24T12:03:02.111Z,15.13
2019-01-24T12:05:31.069Z,18.33
2019-01-24T12:07:59.861Z,22.77
2019-01-24T12:10:31.109Z,18.43
2019-01-24T12:12:59.893Z,25.00
2019-01-24T12:15:30.150Z,18.40
2019-01-24T12:17:59.008Z,18.83
2019-01-24T12:20:28.104Z,18.80
2019-01-24T12:22:57.404Z,23.43
2019-01-24T12:25:26.669Z,20.20
2019-01-24T12:27:55.410Z,17.73
2019-01-24T12:30:27.144Z,19.60
2019-01-24T12:32:56.243Z,18.37
2019-01-24T12:35:24.998Z,18.53
2019-01-24T12:37:53.818Z,18.53
2019-01-24T12:40:22.739Z,21.80
2019-01-24T12:42:52.011Z,22.30
2019-01-24T12:45:23.152Z,19.47
2019-01-24T12:47:52.454Z,21.80
2019-01-24T12:50:21.249Z,24.40
2019-01-24T12:52:49.976Z,18.80
2019-01-24T12:55:19.203Z,23.10
2019-01-24T12:57:48.155Z,19.50
2019-01-24T13:00:31.696Z,25.90
2019-01-24T13:03:00.437Z,23.27
2019-01-24T13:05:30.662Z,18.30
2019-01-24T13:07:59.447Z,20.57
2019-01-24T13:10:29.292Z,23.27
2019-01-24T13:12:58.048Z,22.80
2019-01-24T13:15:29.240Z,24.37
2019-01-24T13:17:58.084Z,27.47
2019-01-24T13:20:26.874Z,27.00
2019-01-24T13:22:55.864Z,30.77
2019-01-24T13:25:29.259Z,32.20
2019-01-24T13:27:58.150Z,32.90
2019-01-24T13:30:32.164Z,30.43
2019-01-24T13:33:00.995Z,32.77
2019-01-24T13:35:29.942Z,33.60
2019-01-24T13:37:59.784Z,31.53
2019-01-24T13:40:30.208Z,30.30
2019-01-24T13:42:59.860Z,29.03
2019-01-24T13:45:31.560Z,33.50
2019-01-24T13:48:00.540Z,34.73
2019-01-24T13:50:29.325Z,29.53
2019-01-24T13:52:58.219Z,30.93
2019-01-24T13:55:27.008Z,34.73
2019-01-24T13:57:55.795Z,33.40
2019-01-24T14:00:30.158Z,33.07
2019-01-24T14:03:10.951Z,30.20
2019-01-24T14:05:39.770Z,32.50
2019-01-24T14:08:08.559Z,25.77
2019-01-24T14:10:37.347Z,29.40
2019-01-24T14:13:06.342Z,31.97
2019-01-24T14:15:35.078Z,29.50
2019-01-24T14:18:04.522Z,30.40
2019-01-24T14:20:33.441Z,34.43
2019-01-24T14:23:02.415Z,29.37
2019-01-24T14:25:31.205Z,28.70
2019-01-24T14:28:00.196Z,30.60
2019-01-24T14:30:29.532Z,30.13
2019-01-24T14:32:58.611Z,28.47
2019-01-24T14:35:27.512Z,25.23
2019-01-24T14:37:56.390Z,31.00
2019-01-24T14:40:25.281Z,32.77
2019-01-24T14:42:54.181Z,33.60
2019-01-24T14:45:25.520Z,34.80
2019-01-24T14:47:54.410Z,32.47
2019-01-24T14:50:28.638Z,31.17
2019-01-24T14:52:57.649Z,32.60
2019-01-24T14:55:26.407Z,27.07
2019-01-24T14:57:55.503Z,35.80
2019-01-24T15:00:30.026Z,32.87
2019-01-24T15:02:58.915Z,36.90
2019-01-24T15:05:28.023Z,34.17
2019-01-24T15:07:56.788Z,36.13
2019-01-24T15:13:30.651Z,32.33
2019-01-24T15:15:59.516Z,32.67
2019-01-24T15:18:28.405Z,33.90
2019-01-24T15:20:57.301Z,37.23
2019-01-24T15:23:26.596Z,37.40
2019-01-24T15:25:55.590Z,42.37
2019-01-24T15:28:24.486Z,46.03
2019-01-24T15:30:53.387Z,47.60
2019-01-24T15:33:22.263Z,44.63
2019-01-24T15:35:51.153Z,44.03
2019-01-24T15:38:20.045Z,49.07
2019-01-24T15:40:48.941Z,47.27
2019-01-24T15:43:17.824Z,45.97
2019-01-24T15:45:46.819Z,42.20
2019-01-24T15:48:15.707Z,42.47
2019-01-24T15:50:44.698Z,44.90
2019-01-24T15:53:13.602Z,41.63
2019-01-24T15:55:42.485Z,48.17
2019-01-24T15:58:11.287Z,54.73
2019-01-24T16:00:40.732Z,45.37
2019-01-24T16:03:09.564Z,49.83
2019-01-24T16:05:38.553Z,47.17
2019-01-24T16:08:07.447Z,35.43
2019-01-24T16:10:36.338Z,37.37
2019-01-24T16:13:05.619Z,37.77
2019-01-24T16:15:36.269Z,41.60
2019-01-24T16:18:07.258Z,45.53
2019-01-24T16:20:36.614Z,39.27
2019-01-24T16:23:05.910Z,42.87
2019-01-24T16:25:35.537Z,46.10
2019-01-24T16:28:05.841Z,43.53
2019-01-24T16:30:36.340Z,49.13
2019-01-24T16:33:07.621Z,49.37
2019-01-24T16:35:36.816Z,35.70
2019-01-24T16:38:09.544Z,33.80
2019-01-24T16:40:36.542Z,45.63
2019-01-24T16:43:05.843Z,42.90
2019-01-24T16:45:34.786Z,54.93
2019-01-24T16:48:03.623Z,51.60
2019-01-24T16:50:32.513Z,45.83
2019-01-24T16:53:01.403Z,61.73
2019-01-24T16:55:30.295Z,54.53
2019-01-24T16:57:59.185Z,51.30
2019-01-24T17:00:31.046Z,53.83
2019-01-24T17:03:00.043Z,45.37
2019-01-24T17:05:29.031Z,48.83
2019-01-24T17:07:57.922Z,31.80
2019-01-24T17:10:28.609Z,32.23
2019-01-24T17:12:57.456Z,32.60
2019-01-24T17:15:27.208Z,31.20
2019-01-24T17:17:56.048Z,29.37
2019-01-24T17:20:29.576Z,26.87
2019-01-24T17:22:58.536Z,31.57
2019-01-24T17:25:32.549Z,31.20
2019-01-24T17:28:01.539Z,32.27
2019-01-24T17:30:32.582Z,31.20
2019-01-24T17:33:01.962Z,33.47
2019-01-24T17:35:30.976Z,30.93
2019-01-24T17:37:59.869Z,31.13
2019-01-24T17:40:33.707Z,23.50
2019-01-24T17:43:02.769Z,25.20
2019-01-24T17:45:32.916Z,30.17
2019-01-24T17:48:01.990Z,20.83
2019-01-24T17:50:30.874Z,26.87
2019-01-24T17:52:59.764Z,30.73
2019-01-24T17:55:31.048Z,32.33
2019-01-24T17:57:59.899Z,26.73
2019-01-24T18:00:30.327Z,25.00
2019-01-24T18:02:59.323Z,22.80
2019-01-24T18:05:28.231Z,23.10
2019-01-24T18:07:57.213Z,23.87
2019-01-24T18:10:33.125Z,25.60
2019-01-24T18:13:03.794Z,27.10
2019-01-24T18:15:34.452Z,23.13
2019-01-24T18:18:06.183Z,23.30
2019-01-24T18:20:37.188Z,20.70
2019-01-24T18:23:08.386Z,18.67
2019-01-24T18:25:37.565Z,19.30
2019-01-24T18:28:08.398Z,22.90
2019-01-24T18:30:37.297Z,16.23
2019-01-24T18:33:06.878Z,18.23
2019-01-24T18:35:35.893Z,16.07
2019-01-24T18:38:05.489Z,15.63
2019-01-24T18:40:34.770Z,17.47
2019-01-24T18:43:04.110Z,14.60
2019-01-24T18:45:35.859Z,16.47
2019-01-24T18:48:05.468Z,15.47
2019-01-24T18:50:34.459Z,14.70
2019-01-24T18:53:03.552Z,13.87
2019-01-24T18:55:32.450Z,11.90
2019-01-24T18:58:01.744Z,11.77
2019-01-24T19:00:32.170Z,14.13
2019-01-24T19:03:01.062Z,14.30
2019-01-24T19:05:30.056Z,15.27
2019-01-24T19:07:59.149Z,18.10
2019-01-24T19:10:28.142Z,15.37
2019-01-24T19:12:57.136Z,15.10
2019-01-24T19:15:26.213Z,26.60
2019-01-24T19:17:55.121Z,18.53
2019-01-24T19:20:24.063Z,16.23
2019-01-24T19:22:52.903Z,16.40
2019-01-24T19:25:22.413Z,13.97
2019-01-24T19:27:51.299Z,17.23
2019-01-24T19:30:25.822Z,15.23
2019-01-24T19:32:54.918Z,16.23
2019-01-24T19:35:23.807Z,17.43
2019-01-24T19:37:52.697Z,19.13
2019-01-24T19:40:24.048Z,16.43
2019-01-24T19:42:53.142Z,17.17
2019-01-24T19:45:23.923Z,14.43
2019-01-24T19:47:52.867Z,18.83
2019-01-24T19:50:24.335Z,18.83
2019-01-24T19:52:53.209Z,14.07
2019-01-24T19:55:22.100Z,15.03
2019-01-24T19:57:51.098Z,23.93
2019-01-24T20:00:30.942Z,14.37
2019-01-24T20:02:59.831Z,14.30
2019-01-24T20:05:29.047Z,17.20
2019-01-24T20:07:58.125Z,15.67
2019-01-24T20:10:30.956Z,18.20
2019-01-24T20:12:59.901Z,17.03
2019-01-24T20:15:30.631Z,18.77
2019-01-24T20:17:59.833Z,13.33
2019-01-24T20:20:29.315Z,16.10
2019-01-24T20:22:58.226Z,16.43
2019-01-24T20:25:28.871Z,21.10
2019-01-24T20:27:57.955Z,18.90
2019-01-24T20:30:29.695Z,17.60
2019-01-24T20:32:59.548Z,21.87
2019-01-24T20:35:33.942Z,21.53
2019-01-24T20:38:02.833Z,25.87
2019-01-24T20:40:31.855Z,25.57
2019-01-24T20:43:00.717Z,26.10
2019-01-24T20:45:29.709Z,34.63
2019-01-24T20:47:58.834Z,29.00
2019-01-24T20:50:27.694Z,28.77
2019-01-24T20:52:56.694Z,64.93
2019-01-24T20:55:25.579Z,30.37
2019-01-24T20:57:54.470Z,49.97
2019-01-24T21:00:24.761Z,55.00
2019-01-24T21:02:55.529Z,44.73
2019-01-24T21:05:25.137Z,39.57
2019-01-24T21:07:54.335Z,34.33
2019-01-24T21:10:28.143Z,53.37
2019-01-24T21:12:57.034Z,61.47
2019-01-24T21:15:25.921Z,41.33
2019-01-24T21:17:55.016Z,42.77
2019-01-24T21:20:29.436Z,52.03
2019-01-24T21:22:58.328Z,37.87
2019-01-24T21:25:27.625Z,43.57
2019-01-24T21:27:56.720Z,52.50
2019-01-24T21:30:27.973Z,42.27
2019-01-24T21:32:56.961Z,48.07
2019-01-24T21:35:25.851Z,45.90
2019-01-24T21:37:54.742Z,47.07
2019-01-24T21:40:25.065Z,65.93
2019-01-24T21:42:53.957Z,48.57
2019-01-24T21:45:27.551Z,58.23
2019-01-24T21:47:56.448Z,40.23
2019-01-24T21:50:27.541Z,52.53
2019-01-24T21:52:56.380Z,44.87
2019-01-24T21:55:25.577Z,66.87
2019-01-24T21:57:54.774Z,71.17
2019-01-24T22:00:28.172Z,49.87
2019-01-24T22:02:57.164Z,45.43
2019-01-24T22:05:26.576Z,40.97
2019-01-24T22:07:55.457Z,39.00
2019-01-24T22:10:31.822Z,37.53
2019-01-24T22:13:00.805Z,44.70
2019-01-24T22:15:31.294Z,45.43
2019-01-24T22:18:00.542Z,50.73
2019-01-24T22:20:29.538Z,67.43
2019-01-24T22:22:58.425Z,52.93
2019-01-24T22:25:32.760Z,28.90
2019-01-24T22:28:01.736Z,36.07
2019-01-24T22:30:38.308Z,49.83
2019-01-24T22:33:07.726Z,35.17
2019-01-24T22:35:36.601Z,36.60
2019-01-24T22:38:07.027Z,49.67
2019-01-24T22:40:36.122Z,32.10
2019-01-24T22:43:05.805Z,28.90
2019-01-24T22:45:34.723Z,46.70
2019-01-24T22:48:03.513Z,35.60
2019-01-24T22:50:32.402Z,40.40
2019-01-24T22:53:01.292Z,17.90
2019-01-24T22:55:30.183Z,49.20
2019-01-24T22:57:59.074Z,32.07
2019-01-24T23:00:47.831Z,22.50
2019-01-24T23:03:19.589Z,21.90
2019-01-24T23:05:48.870Z,19.37
2019-01-24T23:08:17.780Z,26.00
2019-01-24T23:10:46.670Z,16.00
2019-01-24T23:13:15.563Z,13.83
2019-01-24T23:15:44.458Z,21.80
2019-01-24T23:18:13.341Z,15.20
2019-01-24T23:20:42.232Z,19.43
2019-01-24T23:23:11.227Z,23.30
2019-01-24T23:25:40.115Z,23.87
2019-01-24T23:28:09.313Z,26.47
2019-01-24T23:30:38.305Z,29.27
2019-01-24T23:33:07.196Z,21.23
2019-01-24T23:35:36.086Z,23.97
2019-01-24T23:38:05.286Z,23.53
2019-01-24T23:40:34.175Z,21.50
2019-01-24T23:43:03.064Z,23.23
2019-01-24T23:45:31.956Z,31.57
2019-01-24T23:48:00.849Z,30.50
2019-01-24T23:50:29.869Z,32.53
2019-01-24T23:52:58.730Z,39.17
2019-01-24T23:55:27.621Z,24.23
2019-01-24T23:57:56.520Z,35.50
